Time;durP1;ratioP1;P1;durP2;ratioP2;P2;SDS_P1;SDS_P2;PMS_P1;PMS_P2;Temp;Humidity;BMP_temperature;BMP_pressure;BME280_temperature;BME280_humidity;BME280_pressure;Samples;Min_cycle;Max_cycle;Signal;HPM_P1;HPM_P2
2022/08/20 00:00:45;;;;;;;;;;;19.30;99.90;;;;;;5047789;28;19996;-64
2022/08/20 00:03:13;;;;;;;;;;;19.30;99.90;;;;;;5049181;28;19962;-65
2022/08/20 00:05:41;;;;;;;;;;;19.30;99.90;;;;;;5031672;28;20366;-64
2022/08/20 00:08:07;;;;;;;;;;;19.30;99.90;;;;;;5041705;28;19964;-64
2022/08/20 00:10:34;;;;;;;;;;;19.20;99.90;;;;;;5050114;28;19916;-64
2022/08/20 00:13:00;;;;;;;;;;;19.20;99.90;;;;;;5050000;28;19924;-64
2022/08/20 00:15:28;;;;;;;;;;;19.20;99.90;;;;;;5050609;28;19927;-64
2022/08/20 00:17:54;;;;;;;;;;;19.10;99.90;;;;;;5046924;28;19962;-64
2022/08/20 00:20:20;;;;;;;;;;;19.20;99.90;;;;;;5046577;28;19928;-65
2022/08/20 00:22:46;;;;;;;;;;;19.10;99.90;;;;;;5047724;28;20406;-64
2022/08/20 00:25:12;;;;;;;;;;;19.10;99.90;;;;;;5045735;28;19923;-64
2022/08/20 00:27:37;;;;;;;;;;;19.00;99.90;;;;;;5048520;28;20140;-64
2022/08/20 00:30:04;;;;;;;;;;;19.00;99.90;;;;;;5048972;28;19917;-65
2022/08/20 00:32:30;;;;;;;;;;;18.90;99.90;;;;;;5032833;28;20007;-65
2022/08/20 00:34:55;;;;;;;;;;;18.90;99.90;;;;;;5047574;28;20352;-65
2022/08/20 00:37:21;;;;;;;;;;;18.90;99.90;;;;;;5051678;28;19916;-64
2022/08/20 00:39:46;;;;;;;;;;;18.80;99.90;;;;;;5049816;28;20433;-65
2022/08/20 00:42:12;;;;;;;;;;;18.80;99.90;;;;;;5047225;28;19916;-64
2022/08/20 00:44:43;;;;;;;;;;;18.80;99.90;;;;;;5049325;28;19965;-65
2022/08/20 00:47:08;;;;;;;;;;;18.70;99.90;;;;;;5051082;28;19967;-65
2022/08/20 00:49:34;;;;;;;;;;;18.70;99.90;;;;;;5047749;28;19921;-64
2022/08/20 00:52:05;;;;;;;;;;;18.70;99.90;;;;;;5048635;28;19920;-65
2022/08/20 00:54:34;;;;;;;;;;;18.70;99.90;;;;;;5047555;28;20410;-65
2022/08/20 00:57:11;;;;;;;;;;;18.70;99.90;;;;;;5042404;28;19967;-65
2022/08/20 00:59:38;;;;;;;;;;;18.70;99.90;;;;;;5047706;28;19925;-64
2022/08/20 01:02:06;;;;;;;;;;;18.70;99.90;;;;;;5049238;28;19923;-65
2022/08/20 01:04:33;;;;;;;;;;;18.70;99.90;;;;;;5048061;28;20274;-64
2022/08/20 01:06:59;;;;;;;;;;;18.70;99.90;;;;;;5050706;28;19929;-64
2022/08/20 01:09:24;;;;;;;;;;;18.70;99.90;;;;;;5048499;28;20394;-65
2022/08/20 01:11:50;;;;;;;;;;;18.70;99.90;;;;;;5049555;28;19924;-64
2022/08/20 01:17:01;;;;;;;;;;;18.60;99.90;;;;;;5050895;28;19979;-65
2022/08/20 01:19:47;;;;;;;;;;;18.60;99.90;;;;;;5048192;28;20334;-64
2022/08/20 01:25:06;;;;;;;;;;;18.50;99.90;;;;;;5047497;28;19921;-64
2022/08/20 01:27:31;;;;;;;;;;;18.50;99.90;;;;;;5045008;28;19920;-65
2022/08/20 01:29:57;;;;;;;;;;;18.50;99.90;;;;;;5048653;28;19927;-64
2022/08/20 01:32:23;;;;;;;;;;;18.50;99.90;;;;;;5043462;28;19916;-64
2022/08/20 01:34:48;;;;;;;;;;;18.40;99.90;;;;;;5048610;28;19917;-65
2022/08/20 01:37:14;;;;;;;;;;;18.40;99.90;;;;;;5049734;28;20266;-64
2022/08/20 01:39:39;;;;;;;;;;;18.30;99.90;;;;;;5048988;28;20011;-64
2022/08/20 01:42:25;;;;;;;;;;;18.30;99.90;;;;;;5048948;28;20333;-65
2022/08/20 01:44:51;;;;;;;;;;;18.30;99.90;;;;;;5045018;28;20367;-65
2022/08/20 01:47:17;;;;;;;;;;;18.20;99.90;;;;;;5049659;28;20027;-65
2022/08/20 01:49:45;;;;;;;;;;;18.20;99.90;;;;;;5043208;28;20171;-64
2022/08/20 01:52:17;;;;;;;;;;;18.20;99.90;;;;;;5064800;28;19920;-65
2022/08/20 01:54:43;;;;;;;;;;;18.20;99.90;;;;;;5048685;28;19920;-65
2022/08/20 01:57:13;;;;;;;;;;;18.10;99.90;;;;;;5048280;28;20012;-64
2022/08/20 01:59:39;;;;;;;;;;;18.10;99.90;;;;;;5031346;28;20317;-65
2022/08/20 02:02:05;;;;;;;;;;;18.10;99.90;;;;;;5047960;28;19916;-64
2022/08/20 02:04:32;;;;;;;;;;;18.10;99.90;;;;;;5049814;28;20006;-64
2022/08/20 02:07:00;;;;;;;;;;;18.00;99.90;;;;;;5048504;28;19959;-64
2022/08/20 02:09:26;;;;;;;;;;;18.00;99.90;;;;;;5048183;28;20000;-64
2022/08/20 02:11:52;;;;;;;;;;;18.00;99.90;;;;;;5049256;28;19971;-64
2022/08/20 02:14:17;;;;;;;;;;;18.00;99.90;;;;;;5053216;28;20332;-64
2022/08/20 02:16:45;;;;;;;;;;;18.00;99.90;;;;;;5047197;28;19932;-64
2022/08/20 02:19:22;;;;;;;;;;;17.90;99.90;;;;;;5052019;28;19921;-64
2022/08/20 02:21:50;;;;;;;;;;;17.90;99.90;;;;;;5053414;28;19917;-65
2022/08/20 02:24:16;;;;;;;;;;;17.80;99.90;;;;;;5051962;28;19920;-65
2022/08/20 02:26:42;;;;;;;;;;;17.80;99.90;;;;;;5053787;28;19986;-65
2022/08/20 02:29:08;;;;;;;;;;;17.80;99.90;;;;;;5052732;28;19989;-65
2022/08/20 02:31:35;;;;;;;;;;;17.80;99.90;;;;;;5054040;28;19923;-64
2022/08/20 02:34:01;;;;;;;;;;;17.70;99.90;;;;;;5047985;28;19944;-64
2022/08/20 02:36:26;;;;;;;;;;;17.70;99.90;;;;;;5052694;28;20266;-65
2022/08/20 02:38:52;;;;;;;;;;;17.70;99.90;;;;;;5052452;28;19917;-65
2022/08/20 02:41:20;;;;;;;;;;;17.70;99.90;;;;;;5053403;28;19986;-64
2022/08/20 02:43:45;;;;;;;;;;;17.70;99.90;;;;;;5049727;28;20567;-65
2022/08/20 02:46:11;;;;;;;;;;;17.70;99.90;;;;;;5051908;28;19923;-65
2022/08/20 02:48:38;;;;;;;;;;;17.70;99.90;;;;;;5053812;28;20026;-64
2022/08/20 02:51:05;;;;;;;;;;;17.70;99.90;;;;;;5051676;28;20011;-64
2022/08/20 02:53:32;;;;;;;;;;;17.70;99.90;;;;;;5045183;28;19951;-64
2022/08/20 02:55:58;;;;;;;;;;;17.60;99.90;;;;;;5050904;28;19916;-64
2022/08/20 02:58:24;;;;;;;;;;;17.60;99.90;;;;;;5046070;28;20467;-64
2022/08/20 03:00:49;;;;;;;;;;;17.60;99.90;;;;;;5052650;28;19999;-68
2022/08/20 03:03:19;;;;;;;;;;;17.50;99.90;;;;;;5051692;28;19929;-68
2022/08/20 03:05:44;;;;;;;;;;;17.50;99.90;;;;;;5051887;28;20288;-68
2022/08/20 03:08:11;;;;;;;;;;;17.40;99.90;;;;;;5052639;28;19920;-68
2022/08/20 03:10:39;;;;;;;;;;;17.40;99.90;;;;;;5050715;28;19925;-68
2022/08/20 03:13:05;;;;;;;;;;;17.30;99.90;;;;;;5048930;28;19920;-68
2022/08/20 03:15:31;;;;;;;;;;;17.30;99.90;;;;;;5052639;28;20293;-68
2022/08/20 03:17:57;;;;;;;;;;;17.30;99.90;;;;;;5052252;28;19948;-68
2022/08/20 03:20:23;;;;;;;;;;;17.20;99.90;;;;;;5047575;28;19925;-68
2022/08/20 03:22:48;;;;;;;;;;;17.20;99.90;;;;;;5052252;28;19962;-68
2022/08/20 03:25:14;;;;;;;;;;;17.20;99.90;;;;;;5052336;28;20453;-68
2022/08/20 03:27:40;;;;;;;;;;;17.20;99.90;;;;;;5049540;28;20357;-68
2022/08/20 03:30:07;;;;;;;;;;;17.20;99.90;;;;;;5052430;28;19928;-68
2022/08/20 03:32:32;;;;;;;;;;;17.20;99.90;;;;;;5052458;28;19938;-68
2022/08/20 03:34:58;;;;;;;;;;;17.20;99.90;;;;;;5053147;28;19999;-68
2022/08/20 03:37:24;;;;;;;;;;;17.20;99.90;;;;;;5049064;28;19923;-68
2022/08/20 03:39:50;;;;;;;;;;;17.10;99.90;;;;;;5052396;28;19971;-68
2022/08/20 03:42:15;;;;;;;;;;;17.10;99.90;;;;;;5049145;28;19920;-68
2022/08/20 03:44:40;;;;;;;;;;;17.10;99.90;;;;;;5049652;28;20247;-68
2022/08/20 03:47:08;;;;;;;;;;;17.10;99.90;;;;;;5049702;28;19924;-68
2022/08/20 03:49:34;;;;;;;;;;;17.10;99.90;;;;;;5051581;28;19999;-68
2022/08/20 03:52:02;;;;;;;;;;;17.00;99.90;;;;;;5052209;28;19917;-68
2022/08/20 03:54:27;;;;;;;;;;;17.00;99.90;;;;;;5050422;28;20376;-68
2022/08/20 03:56:53;;;;;;;;;;;17.00;99.90;;;;;;5048970;28;19924;-68
2022/08/20 03:59:18;;;;;;;;;;;17.00;99.90;;;;;;5049910;28;19986;-68
2022/08/20 04:01:44;;;;;;;;;;;17.00;99.90;;;;;;5050210;28;19923;-68
2022/08/20 04:04:10;;;;;;;;;;;17.00;99.90;;;;;;5048529;28;19921;-68
2022/08/20 04:06:35;;;;;;;;;;;17.00;99.90;;;;;;5048743;28;19963;-68
2022/08/20 04:09:01;;;;;;;;;;;17.00;99.90;;;;;;5050492;28;19987;-68
2022/08/20 04:11:27;;;;;;;;;;;17.00;99.90;;;;;;5050865;28;19920;-68
2022/08/20 04:13:52;;;;;;;;;;;17.00;99.90;;;;;;5050556;28;19923;-68
2022/08/20 04:16:18;;;;;;;;;;;17.00;99.90;;;;;;5047801;28;19916;-68
2022/08/20 04:18:43;;;;;;;;;;;17.00;99.90;;;;;;5046774;28;20419;-68
2022/08/20 04:21:09;;;;;;;;;;;17.00;99.90;;;;;;5050858;28;19928;-68
2022/08/20 04:23:34;;;;;;;;;;;17.00;99.90;;;;;;5051732;28;20549;-68
2022/08/20 04:26:00;;;;;;;;;;;17.00;99.90;;;;;;5048206;28;19920;-68
2022/08/20 04:28:27;;;;;;;;;;;17.00;99.90;;;;;;5049763;28;19920;-68
2022/08/20 04:30:53;;;;;;;;;;;17.00;99.90;;;;;;5045922;28;19932;-68
2022/08/20 04:33:19;;;;;;;;;;;17.00;99.90;;;;;;5045993;28;19921;-68
2022/08/20 04:35:44;;;;;;;;;;;17.10;99.90;;;;;;5038375;28;19924;-68
2022/08/20 04:38:16;;;;;;;;;;;17.10;99.90;;;;;;5048904;28;19916;-68
2022/08/20 04:40:56;;;;;;;;;;;17.10;99.90;;;;;;5050646;28;20347;-68
2022/08/20 04:43:23;;;;;;;;;;;17.00;99.90;;;;;;5049152;28;19964;-68
2022/08/20 04:45:50;;;;;;;;;;;17.00;99.90;;;;;;5051776;28;19921;-68
2022/08/20 04:48:16;;;;;;;;;;;17.00;99.90;;;;;;5049704;28;19924;-68
2022/08/20 04:50:43;;;;;;;;;;;17.00;99.90;;;;;;5050313;28;19925;-68
2022/08/20 04:53:10;;;;;;;;;;;17.00;99.90;;;;;;5048464;28;20036;-68
2022/08/20 04:55:38;;;;;;;;;;;17.00;99.90;;;;;;5049334;28;19999;-68
2022/08/20 04:58:04;;;;;;;;;;;17.10;99.90;;;;;;5048451;28;19921;-68
2022/08/20 05:00:30;;;;;;;;;;;17.10;99.90;;;;;;5047152;28;20063;-68
2022/08/20 05:02:56;;;;;;;;;;;17.10;99.90;;;;;;5049467;28;19955;-68
2022/08/20 05:05:21;;;;;;;;;;;17.10;99.90;;;;;;5051827;28;20417;-68
2022/08/20 05:07:47;;;;;;;;;;;17.10;99.90;;;;;;5048561;28;19943;-68
2022/08/20 05:10:13;;;;;;;;;;;17.10;99.90;;;;;;5050111;28;19996;-68
2022/08/20 05:12:40;;;;;;;;;;;17.10;99.90;;;;;;5052055;28;19956;-68
2022/08/20 05:15:05;;;;;;;;;;;17.10;99.90;;;;;;5051516;28;19921;-68
2022/08/20 05:17:31;;;;;;;;;;;17.10;99.90;;;;;;5051683;28;19925;-68
2022/08/20 05:19:58;;;;;;;;;;;17.10;99.90;;;;;;5045238;28;19967;-68
2022/08/20 05:22:24;;;;;;;;;;;17.10;99.90;;;;;;5050306;28;19983;-68
2022/08/20 05:24:50;;;;;;;;;;;17.10;99.90;;;;;;5051151;28;19955;-68
2022/08/20 05:27:17;;;;;;;;;;;17.10;99.90;;;;;;5051581;28;19921;-68
2022/08/20 05:29:43;;;;;;;;;;;17.10;99.90;;;;;;5051428;28;19967;-68
2022/08/20 05:32:08;;;;;;;;;;;17.10;99.90;;;;;;5050820;28;20328;-68
2022/08/20 05:34:34;;;;;;;;;;;17.00;99.90;;;;;;5037778;28;19923;-68
2022/08/20 05:37:02;;;;;;;;;;;17.00;99.90;;;;;;5052724;28;19963;-68
2022/08/20 05:39:28;;;;;;;;;;;17.00;99.90;;;;;;5047045;28;19921;-68
2022/08/20 05:41:54;;;;;;;;;;;17.00;99.90;;;;;;5051718;28;19982;-68
2022/08/20 05:44:19;;;;;;;;;;;17.00;99.90;;;;;;5048682;28;19925;-68
2022/08/20 05:46:45;;;;;;;;;;;16.90;99.90;;;;;;5051595;28;19927;-68
2022/08/20 05:49:13;;;;;;;;;;;16.90;99.90;;;;;;5050895;28;19951;-68
2022/08/20 05:51:38;;;;;;;;;;;17.00;99.90;;;;;;5055686;28;19920;-68
2022/08/20 05:54:04;;;;;;;;;;;17.20;99.90;;;;;;5052806;28;19924;-68
2022/08/20 05:56:30;;;;;;;;;;;17.60;99.90;;;;;;5050270;28;20578;-68
2022/08/20 05:58:56;;;;;;;;;;;18.20;99.90;;;;;;5052703;28;20309;-68
2022/08/20 06:01:22;;;;;;;;;;;18.80;99.90;;;;;;5047857;28;19920;-68
2022/08/20 06:06:32;;;;;;;;;;;18.80;99.90;;;;;;5054329;28;19921;-68
2022/08/20 06:08:58;;;;;;;;;;;18.80;99.90;;;;;;5051972;28;19925;-68
2022/08/20 06:11:23;;;;;;;;;;;18.60;99.90;;;;;;5054495;28;19924;-68
2022/08/20 06:13:49;;;;;;;;;;;18.60;99.90;;;;;;5040186;28;20374;-68
2022/08/20 06:16:14;;;;;;;;;;;18.40;99.90;;;;;;5045912;28;19917;-68
2022/08/20 06:18:40;;;;;;;;;;;18.30;99.90;;;;;;5051797;28;19923;-68
2022/08/20 06:21:05;;;;;;;;;;;18.20;99.90;;;;;;5054301;28;19917;-68
2022/08/20 06:23:31;;;;;;;;;;;18.10;99.90;;;;;;5054678;28;20332;-68
2022/08/20 06:25:56;;;;;;;;;;;18.30;99.90;;;;;;5053145;28;19924;-68
2022/08/20 06:28:23;;;;;;;;;;;19.10;99.90;;;;;;5050189;28;19978;-68
2022/08/20 06:30:48;;;;;;;;;;;20.40;99.90;;;;;;5053440;28;19923;-65
2022/08/20 06:33:14;;;;;;;;;;;21.80;99.90;;;;;;5045957;28;19916;-65
2022/08/20 06:35:39;;;;;;;;;;;23.20;99.90;;;;;;5051430;28;19917;-65
2022/08/20 06:38:05;;;;;;;;;;;24.20;99.90;;;;;;5053640;28;19916;-65
2022/08/20 06:40:30;;;;;;;;;;;25.30;99.90;;;;;;5051360;28;19924;-65
2022/08/20 06:42:56;;;;;;;;;;;26.10;99.00;;;;;;5047190;28;19924;-65
2022/08/20 06:45:25;;;;;;;;;;;26.90;99.90;;;;;;5047900;28;19925;-65
2022/08/20 06:47:52;;;;;;;;;;;27.40;94.50;;;;;;5054357;28;20332;-65
2022/08/20 06:50:19;;;;;;;;;;;27.70;98.80;;;;;;5054555;28;19920;-70
2022/08/20 06:52:45;;;;;;;;;;;27.90;93.90;;;;;;5036629;28;20370;-71
2022/08/20 06:55:11;;;;;;;;;;;28.40;93.00;;;;;;5050940;28;20387;-70
2022/08/20 06:57:37;;;;;;;;;;;28.40;92.40;;;;;;5066496;28;19967;-70
2022/08/20 07:00:04;;;;;;;;;;;28.00;91.60;;;;;;5051899;28;20003;-70
2022/08/20 07:02:29;;;;;;;;;;;27.00;93.00;;;;;;5053405;28;19920;-70
2022/08/20 07:04:55;;;;;;;;;;;26.70;93.90;;;;;;5053127;28;19916;-69
2022/08/20 07:07:20;;;;;;;;;;;27.10;92.70;;;;;;5052209;28;20015;-70
2022/08/20 07:09:46;;;;;;;;;;;27.80;92.70;;;;;;5036460;28;19931;-70
2022/08/20 07:12:12;;;;;;;;;;;28.40;91.10;;;;;;5052190;28;19923;-69
2022/08/20 07:14:38;;;;;;;;;;;;;;;;;;5052690;28;19917;-69
2022/08/20 07:17:04;;;;;;;;;;;29.20;90.00;;;;;;5052972;28;19920;-70
2022/08/20 07:19:30;;;;;;;;;;;29.40;85.60;;;;;;5046973;28;20309;-70
2022/08/20 07:21:55;;;;;;;;;;;30.30;90.10;;;;;;5051774;28;19953;-70
2022/08/20 07:24:21;;;;;;;;;;;;;;;;;;5052780;28;19917;-70
2022/08/20 07:26:48;;;;;;;;;;;30.40;81.40;;;;;;5034011;28;19924;-70
2022/08/20 07:29:13;;;;;;;;;;;30.70;84.80;;;;;;5052556;28;19920;-70
2022/08/20 07:34:23;;;;;;;;;;;31.40;77.70;;;;;;5039871;28;19917;-70
2022/08/20 07:36:49;;;;;;;;;;;31.50;77.30;;;;;;5052526;28;19928;-70
2022/08/20 07:39:14;;;;;;;;;;;30.70;73.60;;;;;;5052513;28;20254;-70
2022/08/20 07:41:40;;;;;;;;;;;29.20;76.00;;;;;;5049779;28;19917;-70
2022/08/20 07:44:05;;;;;;;;;;;28.10;78.10;;;;;;5051330;28;19917;-70
2022/08/20 07:46:31;;;;;;;;;;;27.20;82.40;;;;;;5075660;28;19939;-70
2022/08/20 07:48:56;;;;;;;;;;;26.80;83.60;;;;;;5050944;28;20017;-70
2022/08/20 07:51:22;;;;;;;;;;;26.60;89.60;;;;;;5029378;28;20004;-70
2022/08/20 07:53:48;;;;;;;;;;;26.50;84.40;;;;;;5045946;28;19921;-70
2022/08/20 07:56:15;;;;;;;;;;;26.80;81.60;;;;;;5048792;28;20584;-70
2022/08/20 07:58:48;;;;;;;;;;;26.80;87.90;;;;;;5047902;28;19925;-70
2022/08/20 08:01:15;;;;;;;;;;;26.50;90.10;;;;;;5040953;28;20366;-70
2022/08/20 08:03:41;;;;;;;;;;;26.10;89.10;;;;;;5046963;28;19966;-70
2022/08/20 08:06:08;;;;;;;;;;;25.80;90.90;;;;;;5049153;28;19925;-70
2022/08/20 08:08:34;;;;;;;;;;;25.20;87.70;;;;;;5042535;28;19924;-70
2022/08/20 08:11:01;;;;;;;;;;;23.90;87.40;;;;;;5049684;28;19917;-69
2022/08/20 08:13:28;;;;;;;;;;;24.10;90.30;;;;;;5045869;28;19916;-70
2022/08/20 08:15:58;;;;;;;;;;;24.00;92.10;;;;;;5047204;28;20377;-70
2022/08/20 08:18:25;;;;;;;;;;;23.90;92.30;;;;;;5044324;28;19920;-69
2022/08/20 08:20:52;;;;;;;;;;;23.80;92.40;;;;;;5044671;28;19953;-69
2022/08/20 08:23:19;;;;;;;;;;;23.80;91.70;;;;;;5050338;28;19927;-69
2022/08/20 08:25:44;;;;;;;;;;;23.70;92.80;;;;;;5048784;28;19917;-70
2022/08/20 08:28:10;;;;;;;;;;;23.70;93.50;;;;;;5049392;28;19931;-69
2022/08/20 08:30:40;;;;;;;;;;;23.60;92.80;;;;;;5027023;28;19920;-70
2022/08/20 08:35:50;;;;;;;;;;;23.30;89.80;;;;;;5049368;28;20062;-69
2022/08/20 08:38:16;;;;;;;;;;;22.40;90.70;;;;;;5041559;28;19923;-69
2022/08/20 08:40:42;;;;;;;;;;;22.30;91.70;;;;;;5043978;28;19917;-69
2022/08/20 08:43:10;;;;;;;;;;;22.20;92.70;;;;;;5023522;28;19920;-70
2022/08/20 08:45:42;;;;;;;;;;;22.50;93.30;;;;;;5050296;28;19916;-69
2022/08/20 08:48:09;;;;;;;;;;;22.70;93.30;;;;;;5049899;28;20541;-70
2022/08/20 08:50:36;;;;;;;;;;;22.80;94.70;;;;;;5050317;28;19916;-69
2022/08/20 08:53:04;;;;;;;;;;;22.90;94.20;;;;;;5049687;28;20399;-70
2022/08/20 08:55:30;;;;;;;;;;;22.90;91.10;;;;;;5050299;28;20337;-70
2022/08/20 08:57:58;;;;;;;;;;;22.80;90.20;;;;;;5049893;28;20405;-70
2022/08/20 09:00:25;;;;;;;;;;;22.60;91.10;;;;;;5044155;28;20408;-69
2022/08/20 09:02:56;;;;;;;;;;;22.80;91.70;;;;;;5049178;28;19924;-70
2022/08/20 09:05:25;;;;;;;;;;;23.00;93.80;;;;;;5049736;28;19970;-69
2022/08/20 09:07:52;;;;;;;;;;;23.10;90.70;;;;;;5044023;28;19932;-70
2022/08/20 09:10:18;;;;;;;;;;;23.00;91.50;;;;;;5045055;28;19964;-69
2022/08/20 09:12:44;;;;;;;;;;;23.10;94.00;;;;;;5039943;28;19967;-69
2022/08/20 09:15:10;;;;;;;;;;;23.20;93.50;;;;;;5031266;28;19917;-71
2022/08/20 09:17:36;;;;;;;;;;;23.10;92.90;;;;;;5052065;28;20331;-70
2022/08/20 09:20:02;;;;;;;;;;;23.10;89.60;;;;;;5045585;28;19920;-69
2022/08/20 09:22:28;;;;;;;;;;;22.80;90.80;;;;;;5042337;23;19996;-64
2022/08/20 09:24:55;;;;;;;;;;;23.20;93.90;;;;;;5030560;28;20317;-65
2022/08/20 09:27:20;;;;;;;;;;;23.20;90.80;;;;;;5050695;28;19971;-65
2022/08/20 09:29:45;;;;;;;;;;;23.10;90.80;;;;;;5051581;28;19924;-65
2022/08/20 09:32:12;;;;;;;;;;;22.70;86.70;;;;;;5025898;28;19917;-65
2022/08/20 09:34:42;;;;;;;;;;;22.70;91.20;;;;;;5029665;28;19920;-64
2022/08/20 09:37:08;;;;;;;;;;;22.70;93.10;;;;;;5051905;28;20290;-65
2022/08/20 09:39:34;;;;;;;;;;;22.30;90.70;;;;;;5050498;28;19923;-65
2022/08/20 09:42:05;;;;;;;;;;;22.50;92.10;;;;;;5031906;28;19923;-65
2022/08/20 09:44:31;;;;;;;;;;;22.70;89.10;;;;;;5015959;28;19999;-65
2022/08/20 09:46:56;;;;;;;;;;;22.80;92.20;;;;;;5033472;28;20015;-65
2022/08/20 09:49:22;;;;;;;;;;;23.10;93.50;;;;;;5033310;28;20270;-64
2022/08/20 09:51:47;;;;;;;;;;;23.30;93.90;;;;;;5047879;28;19974;-65
2022/08/20 09:54:13;;;;;;;;;;;23.40;92.30;;;;;;5048643;28;19917;-65
2022/08/20 09:56:38;;;;;;;;;;;23.50;88.50;;;;;;5039338;28;19924;-65
2022/08/20 09:59:04;;;;;;;;;;;23.30;88.60;;;;;;5046350;28;19917;-65
2022/08/20 10:01:30;;;;;;;;;;;23.30;85.70;;;;;;5043270;28;20003;-65
2022/08/20 10:03:55;;;;;;;;;;;23.30;86.80;;;;;;5036770;28;19924;-65
2022/08/20 10:06:20;;;;;;;;;;;23.10;84.90;;;;;;5032959;28;19920;-65
2022/08/20 10:08:46;;;;;;;;;;;23.30;90.00;;;;;;5050499;28;19955;-65
2022/08/20 10:11:12;;;;;;;;;;;23.50;92.00;;;;;;5050481;28;20386;-65
2022/08/20 10:13:37;;;;;;;;;;;23.70;92.70;;;;;;5050782;28;19920;-65
2022/08/20 10:16:03;;;;;;;;;;;23.80;92.70;;;;;;5050299;28;19916;-65
2022/08/20 10:18:29;;;;;;;;;;;23.90;90.30;;;;;;5044109;28;19924;-65
2022/08/20 10:20:54;;;;;;;;;;;23.80;92.30;;;;;;5050415;28;19921;-65
2022/08/20 10:23:19;;;;;;;;;;;23.80;91.40;;;;;;5049539;28;19925;-65
2022/08/20 10:25:45;;;;;;;;;;;23.80;91.30;;;;;;5021793;28;20289;-65
2022/08/20 10:28:11;;;;;;;;;;;24.00;93.10;;;;;;5029512;28;19920;-65
2022/08/20 10:30:36;;;;;;;;;;;24.20;92.80;;;;;;5031942;28;19921;-65
2022/08/20 10:33:02;;;;;;;;;;;24.30;90.20;;;;;;5033402;28;20271;-66
2022/08/20 10:35:27;;;;;;;;;;;24.50;91.40;;;;;;5053880;28;19971;-65
2022/08/20 10:37:53;;;;;;;;;;;24.50;84.50;;;;;;5052805;28;20386;-65
2022/08/20 10:40:18;;;;;;;;;;;24.30;84.10;;;;;;5054715;28;20471;-69
2022/08/20 10:42:44;;;;;;;;;;;24.90;90.90;;;;;;5035705;28;20035;-70
2022/08/20 10:45:10;;;;;;;;;;;25.10;80.40;;;;;;5036000;28;19922;-70
2022/08/20 10:47:36;;;;;;;;;;;24.20;79.60;;;;;;5024352;28;20280;-69
2022/08/20 10:50:03;;;;;;;;;;;24.20;81.60;;;;;;5044659;28;19916;-70
2022/08/20 10:52:28;;;;;;;;;;;24.20;87.30;;;;;;5033923;28;19928;-70
2022/08/20 10:54:54;;;;;;;;;;;24.30;86.00;;;;;;5030268;28;19916;-70
2022/08/20 10:57:21;;;;;;;;;;;24.20;80.40;;;;;;5049423;28;19917;-70
2022/08/20 10:59:47;;;;;;;;;;;24.40;89.00;;;;;;5035973;28;20259;-70
2022/08/20 11:02:13;;;;;;;;;;;24.10;84.10;;;;;;5032311;28;19920;-69
2022/08/20 11:04:42;;;;;;;;;;;24.20;89.40;;;;;;5045009;28;19924;-70
2022/08/20 11:07:12;;;;;;;;;;;24.10;90.20;;;;;;5018773;28;19928;-70
2022/08/20 11:09:37;;;;;;;;;;;24.20;84.90;;;;;;5036470;28;19916;-71
2022/08/20 11:12:03;;;;;;;;;;;24.20;87.30;;;;;;5032577;28;19924;-70
2022/08/20 11:14:28;;;;;;;;;;;23.90;80.80;;;;;;5028116;28;19971;-69
2022/08/20 11:16:54;;;;;;;;;;;24.10;87.00;;;;;;5027379;28;20868;-70
2022/08/20 11:19:19;;;;;;;;;;;24.50;89.20;;;;;;5028471;28;19921;-70
2022/08/20 11:21:45;;;;;;;;;;;24.90;89.80;;;;;;5036115;28;19928;-70
2022/08/20 11:24:10;;;;;;;;;;;25.00;88.20;;;;;;5029748;28;20029;-69
2022/08/20 11:26:36;;;;;;;;;;;24.90;82.80;;;;;;5034955;28;19917;-70
2022/08/20 11:29:01;;;;;;;;;;;24.70;87.00;;;;;;5027838;28;19924;-70
2022/08/20 11:31:27;;;;;;;;;;;24.80;79.40;;;;;;5010664;28;19923;-70
2022/08/20 11:33:52;;;;;;;;;;;24.60;85.40;;;;;;5009274;28;20302;-68
2022/08/20 11:36:18;;;;;;;;;;;24.70;88.10;;;;;;5023672;28;19931;-70
2022/08/20 11:38:43;;;;;;;;;;;24.70;87.30;;;;;;5020886;28;19917;-70
2022/08/20 11:41:09;;;;;;;;;;;24.70;88.00;;;;;;5044901;28;19924;-70
2022/08/20 11:43:34;;;;;;;;;;;24.20;78.00;;;;;;5033077;28;19970;-70
2022/08/20 11:46:00;;;;;;;;;;;24.40;80.40;;;;;;5035022;28;19920;-70
2022/08/20 11:48:25;;;;;;;;;;;24.40;79.70;;;;;;5018803;28;19921;-70
2022/08/20 11:50:50;;;;;;;;;;;24.60;81.20;;;;;;5034245;28;19963;-69
2022/08/20 11:53:16;;;;;;;;;;;24.50;80.20;;;;;;5035212;28;19916;-70
2022/08/20 11:55:42;;;;;;;;;;;24.50;83.50;;;;;;5021361;28;19955;-70
2022/08/20 11:58:08;;;;;;;;;;;24.60;88.80;;;;;;5023959;28;19921;-70
2022/08/20 12:00:35;;;;;;;;;;;24.70;85.70;;;;;;5018655;28;19927;-70
2022/08/20 12:03:03;;;;;;;;;;;24.90;87.70;;;;;;5014311;28;19917;-69
2022/08/20 12:05:29;;;;;;;;;;;25.10;87.00;;;;;;5043207;28;19932;-69
2022/08/20 12:07:54;;;;;;;;;;;25.30;87.10;;;;;;5050783;28;19924;-70
2022/08/20 12:10:21;;;;;;;;;;;25.40;79.70;;;;;;5032618;28;20326;-69
2022/08/20 12:12:47;;;;;;;;;;;25.80;85.30;;;;;;5035197;28;19917;-69
2022/08/20 12:15:12;;;;;;;;;;;25.80;83.30;;;;;;5030794;28;20007;-70
2022/08/20 12:17:38;;;;;;;;;;;26.10;82.30;;;;;;5033659;28;19931;-70
2022/08/20 12:20:06;;;;;;;;;;;26.10;79.10;;;;;;5049757;28;19921;-70
2022/08/20 12:22:32;;;;;;;;;;;25.90;82.50;;;;;;5031610;28;19971;-68
2022/08/20 12:24:57;;;;;;;;;;;25.40;79.80;;;;;;5028412;28;19964;-70
2022/08/20 12:27:25;;;;;;;;;;;25.50;83.00;;;;;;5011261;28;19920;-69
2022/08/20 12:29:52;;;;;;;;;;;25.40;83.80;;;;;;5051441;28;20011;-70
2022/08/20 12:32:21;;;;;;;;;;;25.00;78.70;;;;;;5033596;28;19939;-70
2022/08/20 12:34:47;;;;;;;;;;;25.00;86.80;;;;;;5019608;28;19920;-69
2022/08/20 12:37:14;;;;;;;;;;;24.70;76.90;;;;;;5033121;28;19923;-70
2022/08/20 12:39:41;;;;;;;;;;;24.90;80.30;;;;;;5031527;28;19921;-70
2022/08/20 12:42:07;;;;;;;;;;;25.20;85.70;;;;;;5039925;28;19917;-70
2022/08/20 12:44:33;;;;;;;;;;;25.20;75.70;;;;;;5036886;28;20445;-70
2022/08/20 12:47:05;;;;;;;;;;;24.90;76.00;;;;;;5030986;28;19932;-69
2022/08/20 12:49:31;;;;;;;;;;;24.70;76.00;;;;;;5031266;28;19917;-70
2022/08/20 12:51:56;;;;;;;;;;;24.70;81.90;;;;;;5032187;28;19916;-69
2022/08/20 12:54:22;;;;;;;;;;;24.90;85.80;;;;;;5029019;28;19917;-69
2022/08/20 12:56:47;;;;;;;;;;;25.10;85.10;;;;;;5027885;28;19920;-69
2022/08/20 12:59:13;;;;;;;;;;;25.40;78.50;;;;;;5019511;28;19921;-69
2022/08/20 13:01:38;;;;;;;;;;;25.30;75.20;;;;;;5012443;28;19942;-69
2022/08/20 13:04:04;;;;;;;;;;;25.60;83.50;;;;;;5011772;28;20000;-69
2022/08/20 13:06:29;;;;;;;;;;;25.80;79.90;;;;;;5027049;28;19916;-70
2022/08/20 13:08:55;;;;;;;;;;;25.80;74.90;;;;;;5032647;28;19963;-70
2022/08/20 13:11:20;;;;;;;;;;;25.50;76.30;;;;;;5031809;28;19932;-69
2022/08/20 13:13:46;;;;;;;;;;;25.60;77.10;;;;;;5025324;28;20007;-70
2022/08/20 13:16:13;;;;;;;;;;;25.40;78.00;;;;;;5021803;28;19917;-69
2022/08/20 13:18:38;;;;;;;;;;;25.60;78.20;;;;;;5014111;28;19924;-69
2022/08/20 13:21:04;;;;;;;;;;;25.60;85.70;;;;;;5033416;28;19917;-70
2022/08/20 13:23:29;;;;;;;;;;;25.50;83.50;;;;;;5014610;28;19921;-69
2022/08/20 13:25:55;;;;;;;;;;;25.30;77.80;;;;;;5031938;28;20286;-70
2022/08/20 13:28:20;;;;;;;;;;;25.20;80.70;;;;;;5051120;28;20008;-69
2022/08/20 13:30:46;;;;;;;;;;;25.10;81.60;;;;;;5014200;28;19944;-69
2022/08/20 13:33:11;;;;;;;;;;;25.20;86.60;;;;;;5033628;28;19920;-69
2022/08/20 13:35:37;;;;;;;;;;;25.40;84.60;;;;;;5032797;28;20356;-70
2022/08/20 13:38:02;;;;;;;;;;;25.60;83.40;;;;;;5032927;28;20600;-70
2022/08/20 13:40:28;;;;;;;;;;;25.60;79.10;;;;;;5033348;28;20551;-69
2022/08/20 13:42:53;;;;;;;;;;;25.80;84.40;;;;;;5031661;28;19923;-70
2022/08/20 13:45:19;;;;;;;;;;;25.90;84.30;;;;;;5032580;28;19999;-70
2022/08/20 13:47:45;;;;;;;;;;;25.80;77.20;;;;;;5033396;28;20012;-70
2022/08/20 13:50:15;;;;;;;;;;;25.90;78.20;;;;;;5015922;28;19991;-71
2022/08/20 13:52:40;;;;;;;;;;;26.10;77.10;;;;;;5048887;28;19916;-70
2022/08/20 13:55:07;;;;;;;;;;;26.30;84.10;;;;;;5026103;28;20295;-69
2022/08/20 13:57:33;;;;;;;;;;;26.50;84.50;;;;;;5032180;28;19920;-69
2022/08/20 13:59:58;;;;;;;;;;;26.50;75.00;;;;;;5027205;28;19944;-69
2022/08/20 14:02:24;;;;;;;;;;;26.60;80.60;;;;;;5027533;28;20067;-70
2022/08/20 14:04:50;;;;;;;;;;;26.50;73.20;;;;;;5023268;28;20053;-70
2022/08/20 14:07:17;;;;;;;;;;;26.60;80.60;;;;;;5025377;28;19928;-69
2022/08/20 14:09:45;;;;;;;;;;;26.60;77.40;;;;;;5037181;28;19923;-68
2022/08/20 14:12:12;;;;;;;;;;;26.60;80.00;;;;;;5048610;28;19917;-69
2022/08/20 14:14:38;;;;;;;;;;;26.40;79.80;;;;;;5054157;28;19921;-68
2022/08/20 14:17:12;;;;;;;;;;;26.30;85.30;;;;;;5054644;28;20406;-68
2022/08/20 14:19:37;;;;;;;;;;;25.80;74.90;;;;;;5048130;28;19925;-68
2022/08/20 14:22:03;;;;;;;;;;;25.50;80.10;;;;;;5053414;28;20003;-69
2022/08/20 14:24:28;;;;;;;;;;;25.30;81.10;;;;;;5033149;28;19970;-69
2022/08/20 14:26:54;;;;;;;;;;;25.30;77.10;;;;;;5054116;28;20065;-68